»·PEaware :: N1718G S36-KORS

N1718G :: S36-KORS

FLIGHT INFORMATION

Flight Status: Arrived
Operator: Privately registered:
United States
More flights under this callsign
Pilot: Spencer M. (27733)
Aircraft: CESSNA 172 SKYHAWK
(C172)
More flights by this aircraft type
Origin: S36 Norman Grier Field
United States
Destination: KORS Orcas Island
United States
More flights between these airports :: More routes between these airports
Route: 1WA6 NUW
File this flight plan on PilotEdge
Remarks: MYFLIGHTROUTE Alphabet Challenge Washington
Altitude:
(Current/Filed)
4,500ft
Speed:
(Current/Filed)
130kts
Departed: 19-Apr-20 09:05 PM
Arrived: 19-Apr-20 09:57 PM
Distance/Time
Traveled:
88nm/0:52
Distance/Time
To Go:
Arrived

Flight Plot

Page will automatically refresh every two minutes.

Flight plan parsing failed; only flown route is shown


Map Options




Map Legend


Flown Route
Filed Route
Departure Airport
Arrival Airport
Navaid (VOR, NDB)
Fix

Horizontal Profiles

Position Reports

Time Latitude Longitude Heading Altitude Ground
Speed
19-Apr-20 21:00 47.340806 -122.103315 260 476ft 0kts
19-Apr-20 21:01 47.340923 -122.103414 348 476ft 5kts
19-Apr-20 21:02 47.341281 -122.104192 319 476ft 0kts
19-Apr-20 21:03 47.341200 -122.104537 165 476ft 0kts
19-Apr-20 21:04 47.326301 -122.102879 178 866ft 90kts
19-Apr-20 21:05 47.312362 -122.079918 52 1690ft 100kts
19-Apr-20 21:06 47.335596 -122.055387 34 2362ft 111kts
19-Apr-20 21:07 47.362070 -122.030879 29 2965ft 109kts
19-Apr-20 21:08 47.388006 -122.009008 29 3663ft 107kts
19-Apr-20 21:09 47.414689 -121.991655 0 4364ft 105kts
19-Apr-20 21:10 47.446479 -121.985528 25 4507ft 127kts
19-Apr-20 21:11 47.476342 -121.956379 35 4507ft 129kts
19-Apr-20 21:12 47.505440 -121.925017 35 4507ft 129kts
19-Apr-20 21:13 47.534375 -121.893718 35 4507ft 129kts
19-Apr-20 21:14 47.561474 -121.859542 27 4501ft 129kts
19-Apr-20 21:15 47.592922 -121.872305 322 4491ft 129kts
19-Apr-20 21:16 47.622781 -121.901992 326 4492ft 129kts
19-Apr-20 21:17 47.652783 -121.931289 326 4492ft 129kts
19-Apr-20 21:18 47.682793 -121.960455 326 4492ft 129kts
19-Apr-20 21:19 47.712909 -121.989590 326 4492ft 129kts
19-Apr-20 21:20 47.742999 -122.018564 327 4492ft 129kts
19-Apr-20 21:21 47.772411 -122.048634 316 4492ft 129kts
19-Apr-20 21:22 47.796013 -122.088885 309 4492ft 129kts
19-Apr-20 21:23 47.822355 -122.124321 326 4490ft 129kts
19-Apr-20 21:24 47.852319 -122.153760 326 4490ft 129kts
19-Apr-20 21:25 47.882275 -122.183037 326 4490ft 129kts
19-Apr-20 21:26 47.912315 -122.212259 326 4490ft 129kts
19-Apr-20 21:27 47.942430 -122.241419 327 4490ft 129kts
19-Apr-20 21:28 47.972492 -122.270391 327 4490ft 129kts
19-Apr-20 21:29 48.002648 -122.299319 327 4490ft 129kts
19-Apr-20 21:30 48.032868 -122.328173 327 4490ft 129kts
19-Apr-20 21:31 48.063132 -122.356934 327 4490ft 129kts
19-Apr-20 21:32 48.093421 -122.385584 327 4490ft 129kts
19-Apr-20 21:33 48.123844 -122.414226 328 4490ft 129kts
19-Apr-20 21:34 48.154264 -122.442729 328 4490ft 129kts
19-Apr-20 21:35 48.184757 -122.471165 328 4490ft 129kts
19-Apr-20 21:36 48.215311 -122.499524 328 4490ft 129kts
19-Apr-20 21:37 48.245810 -122.527696 328 4490ft 129kts
19-Apr-20 21:38 48.275760 -122.557213 316 4490ft 129kts
19-Apr-20 21:39 48.299083 -122.598163 312 4490ft 129kts
19-Apr-20 21:40 48.326900 -122.631972 326 4489ft 129kts
19-Apr-20 21:41 48.357053 -122.661099 334 4488ft 129kts
19-Apr-20 21:42 48.389595 -122.683899 334 4488ft 129kts
19-Apr-20 21:43 48.422194 -122.706543 334 4488ft 129kts
19-Apr-20 21:44 48.455102 -122.729267 335 4405ft 129kts
19-Apr-20 21:45 48.486009 -122.752832 332 4258ft 117kts
19-Apr-20 21:46 48.504666 -122.768699 329 4104ft 114kts
19-Apr-20 21:47 48.530184 -122.797677 321 3549ft 117kts
19-Apr-20 21:48 48.555008 -122.828004 314 2906ft 115kts
19-Apr-20 21:49 48.577152 -122.861945 312 2294ft 113kts
19-Apr-20 21:50 48.595012 -122.900768 302 1811ft 113kts
19-Apr-20 21:51 48.619412 -122.928202 342 1589ft 110kts
19-Apr-20 21:52 48.644954 -122.926880 18 1464ft 66kts
19-Apr-20 21:53 48.661625 -122.914782 19 962ft 67kts
19-Apr-20 21:54 48.679963 -122.910917 3 472ft 66kts
19-Apr-20 21:55 48.698306 -122.910740 359 185ft 65kts
19-Apr-20 21:56 48.709672 -122.909960 107 24ft 6kts

Navigation Log

Ident Type
Flight plan parsing failed, navigation log unavailable